createdAt,value
2023-01-18T00:02:31.054Z,73.57
2023-01-18T00:12:33.945Z,72.73
2023-01-18T00:22:36.282Z,72.23
2023-01-18T00:32:38.796Z,72.22
2023-01-18T00:43:00.890Z,72.18
2023-01-18T00:53:03.408Z,71.95
2023-01-18T01:03:05.855Z,72.33
2023-01-18T01:13:28.265Z,72.19
2023-01-18T01:23:48.959Z,72.01
2023-01-18T01:33:51.997Z,72.15
2023-01-18T01:43:57.014Z,71.48
2023-01-18T01:54:02.248Z,71.97
2023-01-18T02:04:05.152Z,71.52
2023-01-18T02:14:12.888Z,71.82
2023-01-18T02:24:30.834Z,72.62
2023-01-18T02:34:43.694Z,72.69
2023-01-18T02:45:05.888Z,72.37
2023-01-18T02:55:20.024Z,73.22
2023-01-18T03:05:24.717Z,73.24
2023-01-18T03:15:27.112Z,73.07
2023-01-18T03:25:33.420Z,72.54
2023-01-18T03:35:37.024Z,72.48
2023-01-18T03:45:43.192Z,73.34
2023-01-18T03:55:56.669Z,75.06
2023-01-18T06:05:12.132Z,84.81
2023-01-18T06:15:15.774Z,82.38
2023-01-18T06:25:18.335Z,80.40
2023-01-18T06:35:21.932Z,79.75
2023-01-18T06:45:26.056Z,79.53
2023-01-18T06:55:28.411Z,78.23
2023-01-18T07:05:31.233Z,77.38
2023-01-18T07:15:34.645Z,76.96
2023-01-18T07:25:37.002Z,76.75
2023-01-18T07:35:39.344Z,76.72
2023-01-18T07:45:42.997Z,76.50
2023-01-18T07:55:45.405Z,77.33
2023-01-18T08:05:48.077Z,77.10
2023-01-18T08:15:50.671Z,77.19
2023-01-18T08:25:53.422Z,77.09
2023-01-18T08:35:55.782Z,76.42
2023-01-18T08:45:58.215Z,76.48
2023-01-18T08:56:04.922Z,76.13
2023-01-18T09:06:12.916Z,75.43
2023-01-18T09:16:15.554Z,74.37
2023-01-18T09:26:20.804Z,73.77
2023-01-18T09:36:26.968Z,73.18
2023-01-18T09:46:34.697Z,73.80
2023-01-18T09:56:52.479Z,74.72
2023-01-18T10:07:00.214Z,73.71
2023-01-18T10:17:09.149Z,74.03
2023-01-18T10:27:50.197Z,73.46
2023-01-18T10:37:56.741Z,72.28
2023-01-18T10:48:19.603Z,72.47
2023-01-18T10:58:31.340Z,72.95
2023-01-18T11:08:35.889Z,72.03
2023-01-18T11:18:39.047Z,72.59
2023-01-18T11:29:01.894Z,73.53
2023-01-18T11:39:25.352Z,71.99
2023-01-18T11:49:45.752Z,72.78
2023-01-18T11:59:49.279Z,73.23
2023-01-18T12:09:52.908Z,73.41
2023-01-18T12:20:01.432Z,72.60
2023-01-18T12:30:05.301Z,73.25
2023-01-18T12:40:08.023Z,73.42
2023-01-18T12:50:23.254Z,72.61
2023-01-18T13:00:35.939Z,72.77
2023-01-18T13:10:38.913Z,72.96
2023-01-18T13:21:24.510Z,73.23
2023-01-18T13:31:33.106Z,74.07
2023-01-18T13:41:36.088Z,74.45
2023-01-18T13:51:41.351Z,74.47
2023-01-18T14:01:46.034Z,75.04
2023-01-18T14:11:58.184Z,75.07
2023-01-18T14:22:28.160Z,75.55
2023-01-18T14:32:39.802Z,75.59
2023-01-18T14:42:57.655Z,76.40
2023-01-18T14:53:01.306Z,76.11
2023-01-18T15:03:13.004Z,77.50
2023-01-18T15:13:18.644Z,77.01
2023-01-18T15:23:22.105Z,77.13
2023-01-18T15:33:26.161Z,77.31
2023-01-18T15:43:42.224Z,77.09
2023-01-18T15:53:52.567Z,77.57
2023-01-18T16:04:05.811Z,78.25
2023-01-18T16:14:27.946Z,78.42
2023-01-18T16:24:36.678Z,78.04
2023-01-18T16:34:39.029Z,78.43
2023-01-18T16:44:44.634Z,78.88
2023-01-18T16:54:47.049Z,79.08
2023-01-18T17:04:49.700Z,79.58
2023-01-18T17:14:52.182Z,79.68
2023-01-18T17:24:54.629Z,79.97
2023-01-18T17:34:57.288Z,80.26
2023-01-18T17:45:03.514Z,79.70
2023-01-18T17:55:08.687Z,79.49
2023-01-18T18:05:11.074Z,78.04
2023-01-18T18:15:13.950Z,76.68
2023-01-18T18:25:16.553Z,76.55
2023-01-18T18:35:25.587Z,75.80
2023-01-18T18:45:30.137Z,75.42
2023-01-18T18:55:33.293Z,75.06
2023-01-18T19:05:36.170Z,75.53
2023-01-18T19:15:39.087Z,76.60
2023-01-18T19:25:41.602Z,76.16
2023-01-18T19:35:45.999Z,76.57
2023-01-18T19:45:48.473Z,77.15
2023-01-18T19:56:06.393Z,76.76
2023-01-18T20:06:18.607Z,77.99
2023-01-18T20:16:21.208Z,78.47
2023-01-18T20:26:35.765Z,79.75
2023-01-18T20:36:38.742Z,79.37
2023-01-18T20:46:41.144Z,79.49
2023-01-18T20:56:43.487Z,79.30
2023-01-18T21:06:46.744Z,79.08
2023-01-18T21:16:49.159Z,79.20
2023-01-18T21:26:51.506Z,79.64
2023-01-18T21:40:10.753Z,79.05
2023-01-18T21:50:31.911Z,78.87
2023-01-18T22:00:37.860Z,78.78
2023-01-18T22:10:40.239Z,78.89
2023-01-18T22:20:42.861Z,78.87
2023-01-18T22:30:46.984Z,78.44
2023-01-18T22:40:49.502Z,77.54
2023-01-18T22:50:53.939Z,76.74
2023-01-18T23:00:56.801Z,76.59
2023-01-18T23:10:59.171Z,74.17
2023-01-18T23:21:01.639Z,73.53
2023-01-18T23:31:04.776Z,72.46
2023-01-18T23:41:25.709Z,71.91
2023-01-18T23:51:46.294Z,71.86
